Time;durP1;ratioP1;P1;durP2;ratioP2;P2;SDS_P1;SDS_P2;PMS_P1;PMS_P2;Temp;Humidity;BMP_temperature;BMP_pressure;BME280_temperature;BME280_humidity;BME280_pressure;Samples;Min_cycle;Max_cycle;Signal;HPM_P1;HPM_P2
2023/06/17 00:01:50;;;;;;;6.07;5.57;;;;;;;17.97;62.77;96564.09;4936379;29;20262;-60
2023/06/17 00:04:17;;;;;;;6.13;5.53;;;;;;;17.96;62.04;96564.31;4936617;29;20640;-60
2023/06/17 00:06:43;;;;;;;7.03;5.75;;;;;;;17.91;62.20;96564.88;4936362;29;20211;-60
2023/06/17 00:09:09;;;;;;;5.85;5.35;;;;;;;17.89;62.23;96562.38;4940277;29;20218;-61
2023/06/17 00:11:37;;;;;;;5.72;5.22;;;;;;;17.87;61.91;96569.78;4941146;29;20329;-61
2023/06/17 00:14:04;;;;;;;6.10;5.60;;;;;;;17.85;61.18;96573.66;4936706;29;20274;-61
2023/06/17 00:16:32;;;;;;;5.68;5.15;;;;;;;17.92;60.21;96559.31;4936746;29;20210;-59
2023/06/17 00:18:59;;;;;;;5.60;5.20;;;;;;;17.89;60.70;96561.53;4953153;29;20213;-60
2023/06/17 00:21:26;;;;;;;6.25;5.32;;;;;;;17.87;61.12;96569.78;4956450;28;20214;-60
2023/06/17 00:23:52;;;;;;;5.88;5.38;;;;;;;17.88;61.59;96566.09;4951951;29;20245;-60
2023/06/17 00:26:19;;;;;;;5.80;5.30;;;;;;;17.90;61.56;96564.03;4945449;29;20538;-60
2023/06/17 00:28:46;;;;;;;6.07;5.47;;;;;;;17.88;62.04;96565.25;4946631;29;20215;-60
2023/06/17 00:31:13;;;;;;;5.50;5.00;;;;;;;17.88;62.83;96560.75;4946581;29;20220;-60
2023/06/17 00:33:39;;;;;;;5.30;4.82;;;;;;;17.87;61.72;96553.72;4944105;29;20207;-60
2023/06/17 00:36:06;;;;;;;5.90;5.30;;;;;;;17.75;63.01;96557.06;4946603;29;20571;-60
2023/06/17 00:38:33;;;;;;;5.85;5.35;;;;;;;17.78;62.63;96560.19;4940408;29;20222;-60
2023/06/17 00:40:59;;;;;;;5.85;5.30;;;;;;;17.68;63.82;96551.66;4950685;29;20206;-61
2023/06/17 00:43:26;;;;;;;11.43;5.75;;;;;;;17.65;63.80;96549.38;4948192;29;20320;-61
2023/06/17 00:45:53;;;;;;;5.97;5.35;;;;;;;17.64;63.37;96547.69;4939915;29;20210;-61
2023/06/17 00:48:20;;;;;;;5.95;5.45;;;;;;;17.69;62.77;96550.66;4946546;29;20215;-60
2023/06/17 00:50:47;;;;;;;7.22;5.20;;;;;;;17.65;63.13;96549.38;4959590;29;20202;-60
2023/06/17 00:53:13;;;;;;;5.72;5.22;;;;;;;17.66;64.18;96550.19;4947272;29;20235;-60
2023/06/17 00:55:40;;;;;;;6.25;5.75;;;;;;;17.73;63.51;96557.28;4957055;28;20208;-60
2023/06/17 00:58:07;;;;;;;6.32;5.47;;;;;;;17.72;63.97;96550.28;4940120;29;20239;-61
2023/06/17 01:00:33;;;;;;;6.18;4.90;;;;;;;17.71;65.35;96548.59;4947704;29;20636;-62
2023/06/17 01:03:01;;;;;;;5.70;5.20;;;;;;;17.74;63.90;96550.94;4959350;29;20234;-61
2023/06/17 01:05:28;;;;;;;5.68;5.18;;;;;;;17.69;65.26;96555.16;4942320;29;20243;-61
2023/06/17 01:08:12;;;;;;;5.90;5.38;;;;;;;17.73;63.67;96549.25;4940850;29;20290;-61
2023/06/17 01:10:43;;;;;;;5.60;5.10;;;;;;;17.69;64.61;96550.66;4941450;29;20228;-60
2023/06/17 01:13:11;;;;;;;6.03;5.53;;;;;;;17.68;65.56;96549.00;4943653;29;20242;-61
2023/06/17 01:15:38;;;;;;;5.90;5.40;;;;;;;17.65;65.33;96549.38;4938696;29;20267;-61
2023/06/17 01:18:07;;;;;;;6.22;5.63;;;;;;;17.59;63.26;96555.47;4939232;29;20215;-61
2023/06/17 01:20:35;;;;;;;5.68;5.18;;;;;;;17.65;65.55;96554.72;4945702;29;20210;-60
2023/06/17 01:23:03;;;;;;;6.40;5.38;;;;;;;17.63;66.65;96550.59;4949180;28;20321;-61
2023/06/17 01:25:31;;;;;;;6.70;5.60;;;;;;;17.57;66.38;96549.47;4938806;29;20211;-61
2023/06/17 01:28:00;;;;;;;5.78;5.35;;;;;;;17.54;66.13;96557.00;4938901;29;20234;-60
2023/06/17 01:30:29;;;;;;;7.05;5.80;;;;;;;17.54;65.33;96555.16;4944840;29;20399;-61
2023/06/17 01:32:56;;;;;;;5.90;5.40;;;;;;;17.56;66.25;96555.84;4950177;28;20242;-61
2023/06/17 01:35:23;;;;;;;6.28;5.78;;;;;;;17.51;66.60;96557.41;4938801;29;20294;-60
2023/06/17 01:37:54;;;;;;;6.47;5.45;;;;;;;17.45;66.53;96552.81;4938730;29;20211;-60
2023/06/17 01:40:22;;;;;;;5.82;5.32;;;;;;;17.39;65.53;96557.88;4944091;29;20238;-60
2023/06/17 01:42:52;;;;;;;6.38;5.68;;;;;;;17.37;67.79;96557.25;4942122;29;20235;-61
2023/06/17 01:45:19;;;;;;;6.35;5.55;;;;;;;17.40;67.57;96554.19;4947373;29;20297;-62
2023/06/17 01:47:46;;;;;;;6.30;5.70;;;;;;;17.36;69.29;96560.09;4938066;29;20229;-61
2023/06/17 01:50:18;;;;;;;5.72;5.22;;;;;;;17.31;68.99;96558.00;4949687;29;20282;-61
2023/06/17 01:52:44;;;;;;;6.32;5.82;;;;;;;17.32;68.92;96558.84;4944505;29;20217;-62
2023/06/17 01:55:11;;;;;;;6.18;5.65;;;;;;;17.31;68.81;96557.16;4953481;28;20239;-61
2023/06/17 01:57:37;;;;;;;6.47;5.95;;;;;;;17.27;69.56;96555.88;4939193;29;20274;-61
2023/06/17 02:00:07;;;;;;;6.25;5.65;;;;;;;17.30;69.02;96561.69;4940761;29;20210;-62
2023/06/17 02:02:33;;;;;;;7.20;5.93;;;;;;;17.26;69.81;96548.88;4938811;29;20271;-61
2023/06/17 02:05:00;;;;;;;6.35;5.80;;;;;;;17.20;70.61;96555.81;4950892;29;20222;-60
2023/06/17 02:07:27;;;;;;;5.95;5.45;;;;;;;17.20;72.14;96554.97;4957362;29;20222;-61
2023/06/17 02:09:53;;;;;;;9.00;5.50;;;;;;;17.19;72.51;96553.31;4957061;29;20258;-60
2023/06/17 02:12:20;;;;;;;6.47;5.85;;;;;;;17.18;72.75;96555.13;4956727;29;20301;-60
2023/06/17 02:14:47;;;;;;;6.82;6.22;;;;;;;17.20;72.95;96549.63;4956794;29;20210;-61
2023/06/17 02:17:15;;;;;;;6.40;5.88;;;;;;;17.09;73.94;96553.59;4956727;29;20214;-60
2023/06/17 02:19:41;;;;;;;6.32;5.75;;;;;;;17.10;72.35;96552.59;4957300;29;20222;-61
2023/06/17 02:22:08;;;;;;;6.15;5.57;;;;;;;17.08;73.95;96564.47;4953440;29;20219;-60
2023/06/17 02:24:34;;;;;;;6.03;5.50;;;;;;;17.03;74.10;96550.84;4950615;29;20234;-60
2023/06/17 02:27:01;;;;;;;6.40;5.72;;;;;;;17.00;74.25;96554.72;4953900;28;20222;-61
2023/06/17 02:29:28;;;;;;;7.53;6.03;;;;;;;17.04;74.26;96552.50;4956819;29;20260;-61
2023/06/17 02:31:54;;;;;;;7.97;5.97;;;;;;;16.93;74.71;96553.81;4955771;29;20672;-60
2023/06/17 02:34:23;;;;;;;6.95;6.30;;;;;;;16.83;75.48;96553.22;4956226;29;20266;-60
2023/06/17 02:36:50;;;;;;;6.20;5.70;;;;;;;16.82;76.42;96547.09;4956592;29;20574;-61
2023/06/17 02:39:17;;;;;;;5.97;5.47;;;;;;;16.83;75.09;96551.38;4956654;29;20260;-61
2023/06/17 02:41:44;;;;;;;6.10;5.50;;;;;;;16.81;74.06;96542.75;4956442;29;20207;-61
2023/06/17 02:44:10;;;;;;;5.90;5.47;;;;;;;16.70;73.99;96548.53;4955978;28;20694;-61
2023/06/17 02:46:36;;;;;;;5.95;5.45;;;;;;;16.65;75.68;96555.44;4956186;29;20218;-61
2023/06/17 02:49:03;;;;;;;6.45;5.88;;;;;;;16.63;76.33;96554.78;4956253;29;20316;-61
2023/06/17 02:51:32;;;;;;;6.40;5.85;;;;;;;16.59;77.40;96550.81;4954631;29;20623;-61
2023/06/17 02:53:58;;;;;;;6.07;5.57;;;;;;;16.58;78.30;96549.97;4956333;29;20549;-60
2023/06/17 02:56:26;;;;;;;6.10;5.60;;;;;;;16.62;78.30;96540.59;4947447;28;20222;-61
2023/06/17 02:58:52;;;;;;;6.10;5.60;;;;;;;16.54;78.02;96548.69;4937427;29;20261;-61
2023/06/17 03:01:21;;;;;;;6.32;5.80;;;;;;;16.51;78.59;96546.34;4944259;29;20217;-59
2023/06/17 03:03:48;;;;;;;6.57;5.90;;;;;;;16.42;79.78;96550.97;4937250;29;20227;-61
2023/06/17 03:06:14;;;;;;;6.80;6.07;;;;;;;16.46;78.88;96551.41;4937156;29;20636;-60
2023/06/17 03:08:42;;;;;;;6.50;5.60;;;;;;;16.43;78.94;96541.13;4940253;29;20218;-59
2023/06/17 03:11:09;;;;;;;6.65;5.85;;;;;;;16.42;79.60;96544.78;4946236;29;20238;-59
2023/06/17 03:13:35;;;;;;;6.43;5.82;;;;;;;16.33;80.30;96543.22;4942396;29;20202;-61
2023/06/17 03:16:02;;;;;;;5.38;4.97;;;;;;;16.35;79.23;96535.84;4949588;29;20222;-60
2023/06/17 03:18:29;;;;;;;7.00;6.10;;;;;;;16.28;80.43;96542.91;4943190;29;20569;-62
2023/06/17 03:20:56;;;;;;;6.28;5.72;;;;;;;16.29;80.33;96536.56;4956456;29;20214;-61
2023/06/17 03:23:22;;;;;;;6.15;5.55;;;;;;;16.28;81.08;96540.25;4950639;29;20238;-61
2023/06/17 03:25:51;;;;;;;6.37;5.77;;;;;;;16.29;80.46;96545.41;4954192;29;20211;-61
2023/06/17 03:28:17;;;;;;;6.80;5.50;;;;;;;16.27;79.79;96547.41;4960769;29;20220;-62
2023/06/17 03:30:44;;;;;;;6.68;6.07;;;;;;;16.25;78.94;96546.78;4960362;29;20206;-61
2023/06/17 03:33:11;;;;;;;6.38;5.78;;;;;;;16.15;81.21;96546.22;4945137;29;20285;-61
2023/06/17 03:35:38;;;;;;;6.55;5.88;;;;;;;16.13;80.90;96547.38;4958340;29;20214;-61
2023/06/17 03:38:05;;;;;;;6.27;5.77;;;;;;;16.12;80.26;96553.75;4940048;29;20211;-62
2023/06/17 03:40:31;;;;;;;6.45;5.38;;;;;;;16.13;80.66;96550.88;4946680;29;20249;-61
2023/06/17 03:43:00;;;;;;;6.32;5.82;;;;;;;16.04;83.13;96546.63;4938753;29;20640;-61
2023/06/17 03:45:28;;;;;;;5.82;5.35;;;;;;;16.06;83.64;96554.44;4936666;29;20219;-61
2023/06/17 03:47:54;;;;;;;6.40;5.90;;;;;;;16.09;82.86;96554.06;4938834;29;20676;-60
2023/06/17 03:50:21;;;;;;;6.68;6.03;;;;;;;16.12;83.73;96559.06;4972709;29;20234;-60
2023/06/17 03:52:47;;;;;;;6.18;5.57;;;;;;;16.12;83.51;96559.06;4978020;29;20214;-61
2023/06/17 03:55:14;;;;;;;6.43;5.93;;;;;;;16.14;83.91;96559.72;4975430;28;20229;-60
2023/06/17 03:57:42;;;;;;;5.80;5.40;;;;;;;16.12;84.34;96565.22;4940889;29;20219;-60
2023/06/17 04:00:11;;;;;;;6.00;5.57;;;;;;;16.17;82.78;96568.19;4945632;29;20210;-62
2023/06/17 04:02:37;;;;;;;5.83;5.33;;;;;;;16.20;82.06;96567.00;4940274;29;20222;-61
2023/06/17 04:05:05;;;;;;;6.00;5.53;;;;;;;16.15;84.29;96567.56;4940999;29;20246;-61
2023/06/17 04:07:32;;;;;;;6.20;5.70;;;;;;;16.12;84.88;96565.22;4955684;29;20266;-60
2023/06/17 04:09:59;;;;;;;6.47;5.93;;;;;;;16.13;84.48;96572.22;4945464;29;20628;-60
2023/06/17 04:12:26;;;;;;;6.70;6.10;;;;;;;16.15;85.46;96569.38;4944667;29;20242;-60
2023/06/17 04:14:52;;;;;;;6.13;5.63;;;;;;;16.25;84.20;96573.47;4940712;29;20203;-60
2023/06/17 04:17:20;;;;;;;6.27;5.77;;;;;;;16.20;85.78;96567.81;4952930;29;20211;-60
2023/06/17 04:19:47;;;;;;;6.25;5.65;;;;;;;16.27;87.09;96570.59;4945940;29;20548;-61
2023/06/17 04:22:14;;;;;;;6.57;5.97;;;;;;;16.31;88.09;96571.91;4943688;29;20265;-60
2023/06/17 04:24:40;;;;;;;6.50;5.82;;;;;;;16.36;88.56;96572.22;4939760;29;20763;-60
2023/06/17 04:27:07;;;;;;;6.18;5.45;;;;;;;16.34;87.87;96576.88;4950622;29;20212;-60
2023/06/17 04:29:34;;;;;;;7.05;6.35;;;;;;;16.41;87.99;96577.81;4939999;29;20219;-60
2023/06/17 04:32:02;;;;;;;6.20;5.70;;;;;;;16.45;88.51;96576.44;4947259;29;20591;-60
2023/06/17 04:34:30;;;;;;;6.30;5.70;;;;;;;16.50;89.16;96581.25;4959375;29;20206;-60
2023/06/17 04:36:57;;;;;;;6.07;5.60;;;;;;;16.55;89.71;96576.19;4960796;29;20211;-61
2023/06/17 04:39:24;;;;;;;6.60;6.10;;;;;;;16.54;90.65;96580.72;4956242;29;20221;-61
2023/06/17 04:41:51;;;;;;;6.72;6.13;;;;;;;16.62;90.59;96571.81;4959477;29;20297;-60
2023/06/17 04:44:17;;;;;;;6.50;5.90;;;;;;;16.71;90.26;96570.72;4958729;29;20241;-60
2023/06/17 04:46:45;;;;;;;6.70;6.00;;;;;;;16.75;90.30;96572.88;4957916;29;20608;-60
2023/06/17 04:49:11;;;;;;;9.00;6.28;;;;;;;16.80;91.36;96566.94;4958253;29;20635;-60
2023/06/17 04:51:40;;;;;;;6.90;6.22;;;;;;;16.87;91.24;96560.69;4958346;29;20245;-60
2023/06/17 04:54:07;;;;;;;6.43;5.82;;;;;;;16.98;90.61;96570.09;4958436;29;20297;-61
2023/06/17 04:56:34;;;;;;;7.07;6.28;;;;;;;17.08;91.14;96567.13;4957872;28;20206;-61
2023/06/17 04:59:01;;;;;;;6.82;6.22;;;;;;;17.13;88.98;96560.22;4941931;29;20278;-60
2023/06/17 05:01:27;;;;;;;6.65;6.05;;;;;;;17.22;87.59;96560.94;4939283;29;20207;-61
2023/06/17 05:03:56;;;;;;;7.63;6.75;;;;;;;17.24;86.65;96561.59;4939350;29;20235;-61
2023/06/17 05:06:23;;;;;;;7.10;6.50;;;;;;;17.32;84.29;96570.34;4947371;28;20206;-61
2023/06/17 05:08:51;;;;;;;6.97;6.28;;;;;;;17.50;82.93;96561.09;4940883;29;20207;-63
2023/06/17 05:11:19;;;;;;;7.35;6.65;;;;;;;17.63;81.95;96567.47;4942162;29;20238;-61
2023/06/17 05:13:46;;;;;;;7.30;6.63;;;;;;;17.83;81.47;96578.38;4941281;29;20254;-60
2023/06/17 05:16:12;;;;;;;7.05;6.45;;;;;;;17.94;81.51;96563.66;4948611;29;20651;-60
2023/06/17 05:18:39;;;;;;;7.22;6.60;;;;;;;18.13;79.79;96565.72;4940694;29;20215;-60
2023/06/17 05:21:05;;;;;;;7.82;6.47;;;;;;;18.28;77.82;96569.97;4950286;29;20214;-61
2023/06/17 05:23:32;;;;;;;8.18;6.43;;;;;;;18.44;75.11;96566.19;4940692;29;20222;-61
2023/06/17 05:26:00;;;;;;;7.30;6.70;;;;;;;18.58;73.62;96567.97;4946742;29;20207;-61
2023/06/17 05:28:26;;;;;;;6.95;6.35;;;;;;;18.76;72.54;96573.69;4940401;29;20226;-61
2023/06/17 05:30:53;;;;;;;7.18;6.53;;;;;;;18.92;71.19;96571.72;4938609;29;20211;-60
2023/06/17 05:33:20;;;;;;;6.97;6.30;;;;;;;19.05;70.14;96564.59;4938923;29;20221;-61
2023/06/17 05:35:46;;;;;;;7.32;6.72;;;;;;;19.16;69.42;96574.75;4944392;29;20203;-61
2023/06/17 05:38:13;;;;;;;7.20;6.50;;;;;;;19.35;69.14;96565.13;4940364;29;20207;-60
2023/06/17 05:40:39;;;;;;;7.30;6.55;;;;;;;19.51;68.89;96574.75;4937289;29;20219;-61
2023/06/17 05:43:07;;;;;;;6.95;6.25;;;;;;;19.67;67.24;96571.69;4939036;29;20211;-60
2023/06/17 05:45:34;;;;;;;7.55;6.85;;;;;;;19.77;66.84;96583.69;4942069;29;20237;-61
2023/06/17 05:48:00;;;;;;;7.28;6.68;;;;;;;20.04;65.44;96581.09;4939994;29;20267;-61
2023/06/17 05:50:27;;;;;;;9.95;7.38;;;;;;;20.10;64.51;96580.28;4945794;29;20219;-61
2023/06/17 05:52:53;;;;;;;6.97;6.43;;;;;;;20.33;64.05;96583.47;4956525;29;20218;-61
2023/06/17 05:55:20;;;;;;;7.50;6.85;;;;;;;20.47;63.83;96579.75;4956160;28;20203;-60
2023/06/17 05:57:48;;;;;;;7.18;6.47;;;;;;;20.62;64.27;96583.03;4944586;29;20214;-61
2023/06/17 06:00:17;;;;;;;6.57;5.97;;;;;;;20.82;63.73;96583.88;4957050;29;20214;-61
2023/06/17 06:02:44;;;;;;;7.43;6.65;;;;;;;21.01;62.89;96576.00;4957665;29;20206;-62
2023/06/17 06:05:10;;;;;;;7.70;7.00;;;;;;;21.25;61.31;96580.72;4957249;29;20245;-60
2023/06/17 06:07:37;;;;;;;7.00;6.30;;;;;;;21.44;61.96;96579.81;4957592;29;20214;-60
2023/06/17 06:10:06;;;;;;;7.35;6.60;;;;;;;21.65;60.41;96582.22;4957299;29;20228;-61
2023/06/17 06:12:32;;;;;;;7.85;7.18;;;;;;;21.72;59.96;96588.41;4957114;28;20239;-61
2023/06/17 06:14:59;;;;;;;6.80;6.20;;;;;;;21.82;61.17;96583.38;4943923;29;20215;-61
2023/06/17 06:17:26;;;;;;;7.80;6.60;;;;;;;21.95;58.72;96581.69;4956981;28;20261;-61
2023/06/17 06:19:53;;;;;;;7.60;6.82;;;;;;;22.08;58.17;96590.53;4943902;29;20222;-61
2023/06/17 06:22:19;;;;;;;8.00;6.75;;;;;;;22.28;59.55;96593.13;4957270;29;20218;-61
2023/06/17 06:24:46;;;;;;;7.82;7.10;;;;;;;22.46;58.74;96585.09;4956598;29;20297;-60
2023/06/17 06:27:12;;;;;;;6.95;6.32;;;;;;;22.72;57.95;96590.31;4956637;29;20266;-60
2023/06/17 06:29:39;;;;;;;7.57;6.88;;;;;;;22.89;57.03;96589.75;4956869;29;20210;-61
2023/06/17 06:32:06;;;;;;;6.32;5.93;;;;;;;23.24;56.96;96593.56;4956862;29;20214;-61
2023/06/17 06:34:34;;;;;;;7.55;6.93;;;;;;;23.44;56.20;96598.78;4957479;29;20210;-61
2023/06/17 06:37:01;;;;;;;7.40;6.57;;;;;;;23.61;55.49;96599.84;4957391;29;20704;-60
2023/06/17 06:39:27;;;;;;;7.55;6.85;;;;;;;23.74;54.81;96594.25;4958442;29;20716;-61
2023/06/17 06:41:54;;;;;;;6.68;6.07;;;;;;;23.87;54.21;96598.69;4959769;29;20270;-61
2023/06/17 06:44:21;;;;;;;7.13;6.43;;;;;;;23.99;54.10;96596.84;4958730;29;20675;-62
2023/06/17 06:46:47;;;;;;;7.00;6.40;;;;;;;24.22;54.55;96605.94;4957714;29;20214;-61
2023/06/17 06:49:13;;;;;;;7.88;6.72;;;;;;;24.09;51.67;96608.75;4956234;29;20214;-61
2023/06/17 06:51:41;;;;;;;6.53;5.95;;;;;;;24.48;51.83;96596.59;4956469;29;20215;-61
2023/06/17 06:54:08;;;;;;;6.80;6.20;;;;;;;24.69;51.54;96604.16;4956777;29;20229;-61
2023/06/17 06:56:34;;;;;;;7.05;6.35;;;;;;;24.57;52.19;96603.34;4951708;28;20586;-62
2023/06/17 06:59:01;;;;;;;6.65;6.05;;;;;;;24.48;52.65;96607.41;4945250;28;20207;-60
2023/06/17 07:01:28;;;;;;;6.70;6.10;;;;;;;24.80;51.22;96605.22;4939049;29;20226;-61
2023/06/17 07:03:54;;;;;;;6.53;5.95;;;;;;;25.02;51.59;96605.53;4938871;29;20215;-61
2023/06/17 07:06:21;;;;;;;7.15;6.40;;;;;;;25.11;51.65;96601.44;4939126;29;20617;-62
2023/06/17 07:08:49;;;;;;;6.63;5.85;;;;;;;25.18;50.58;96602.13;4938441;29;20215;-60
2023/06/17 07:11:16;;;;;;;7.60;6.75;;;;;;;24.83;52.23;96598.56;4947588;29;20561;-61
2023/06/17 07:13:42;;;;;;;7.50;6.80;;;;;;;24.77;51.12;96609.25;4938599;29;20556;-60
2023/06/17 07:16:09;;;;;;;7.03;6.43;;;;;;;25.22;50.71;96609.53;4936653;29;20637;-61
2023/06/17 07:18:35;;;;;;;7.50;6.90;;;;;;;25.46;50.32;96602.25;4936902;29;20210;-60
2023/06/17 07:21:02;;;;;;;6.97;6.32;;;;;;;25.53;50.08;96600.25;4950147;29;20675;-61
2023/06/17 07:23:28;;;;;;;7.53;6.82;;;;;;;25.40;49.42;96597.75;4956133;29;20214;-61
2023/06/17 07:25:56;;;;;;;7.28;6.68;;;;;;;25.56;49.44;96599.78;4955991;29;20605;-60
2023/06/17 07:28:22;;;;;;;7.03;6.32;;;;;;;25.62;48.84;96603.41;4955568;29;20244;-61
2023/06/17 07:30:49;;;;;;;8.65;6.50;;;;;;;25.49;49.84;96607.19;4957071;28;20576;-61
2023/06/17 07:33:16;;;;;;;6.85;6.35;;;;;;;25.62;49.19;96603.41;4960254;29;20210;-60
2023/06/17 07:35:43;;;;;;;9.65;7.40;;;;;;;25.93;48.71;96599.47;4959995;29;20207;-60
2023/06/17 07:38:09;;;;;;;7.35;6.63;;;;;;;26.16;49.32;96604.78;4959757;29;20217;-61
2023/06/17 07:40:36;;;;;;;6.97;6.35;;;;;;;26.49;49.32;96604.91;4959624;29;20207;-61
2023/06/17 07:43:04;;;;;;;7.00;6.43;;;;;;;26.77;47.48;96597.78;4959675;29;20202;-60
2023/06/17 07:45:33;;;;;;;7.53;6.82;;;;;;;26.84;45.24;96601.19;4959197;29;20547;-61
2023/06/17 07:47:59;;;;;;;7.40;6.68;;;;;;;27.12;46.09;96601.09;4947470;29;20658;-61
2023/06/17 07:50:26;;;;;;;6.75;6.15;;;;;;;27.08;44.32;96602.66;4959441;29;20320;-61
2023/06/17 07:52:52;;;;;;;6.55;5.93;;;;;;;27.17;45.31;96598.47;4959562;29;20225;-60
2023/06/17 07:55:20;;;;;;;7.03;6.40;;;;;;;27.14;45.10;96594.34;4959141;28;20674;-61
2023/06/17 07:57:47;;;;;;;6.85;6.25;;;;;;;27.32;46.56;96593.25;4954315;29;20249;-60
2023/06/17 08:00:16;;;;;;;7.53;6.20;;;;;;;27.13;44.95;96587.28;4939893;29;20334;-60
2023/06/17 08:02:44;;;;;;;7.22;6.32;;;;;;;27.29;45.63;96585.59;4941393;29;20294;-59
2023/06/17 08:05:11;;;;;;;6.65;6.05;;;;;;;27.29;44.63;96587.50;4977029;29;20233;-60
2023/06/17 08:07:37;;;;;;;7.47;6.88;;;;;;;27.16;43.61;96585.97;4976330;29;20230;-61
2023/06/17 08:10:05;;;;;;;6.57;6.03;;;;;;;27.64;46.08;96586.13;4945503;29;20207;-62
2023/06/17 08:12:32;;;;;;;6.43;5.93;;;;;;;27.87;44.92;96586.97;4945732;29;20235;-59
2023/06/17 08:14:58;;;;;;;6.40;5.80;;;;;;;27.85;45.49;96587.19;4939746;29;20227;-59
2023/06/17 08:17:26;;;;;;;6.60;6.00;;;;;;;27.86;44.53;96579.88;4950798;29;20206;-60
2023/06/17 08:19:53;;;;;;;6.85;6.35;;;;;;;27.46;43.84;96578.28;4953882;29;20221;-60
2023/06/17 08:22:20;;;;;;;6.75;6.15;;;;;;;27.68;44.15;96576.41;4967469;29;20203;-61
2023/06/17 08:24:46;;;;;;;6.57;5.82;;;;;;;28.02;44.73;96565.41;4945577;29;20211;-62
2023/06/17 08:27:13;;;;;;;6.38;5.90;;;;;;;27.75;43.29;96569.94;4943393;29;20218;-60
2023/06/17 08:29:39;;;;;;;6.32;5.82;;;;;;;28.05;43.19;96565.72;4953234;29;20209;-60
2023/06/17 08:32:06;;;;;;;9.55;6.38;;;;;;;28.18;42.26;96562.63;4950677;29;20218;-61
2023/06/17 08:34:35;;;;;;;7.22;6.05;;;;;;;28.28;43.81;96563.78;4939869;29;20219;-60
2023/06/17 08:37:03;;;;;;;6.20;5.70;;;;;;;28.27;42.85;96562.16;4940892;29;20704;-61
2023/06/17 08:39:30;;;;;;;6.45;5.85;;;;;;;28.18;40.12;96561.78;4939459;29;20210;-60
2023/06/17 08:41:57;;;;;;;6.60;6.10;;;;;;;28.49;41.29;96565.63;4939558;29;20207;-61
2023/06/17 08:44:26;;;;;;;6.22;5.72;;;;;;;28.48;40.32;96553.94;4939823;29;20230;-61
2023/06/17 08:46:52;;;;;;;7.40;6.40;;;;;;;28.71;40.36;96552.81;4939207;29;20234;-60
2023/06/17 08:49:19;;;;;;;7.47;6.03;;;;;;;28.70;39.87;96550.34;4946508;29;20215;-60
2023/06/17 08:51:49;;;;;;;5.80;5.30;;;;;;;28.89;39.76;96549.69;4939460;29;20215;-60
2023/06/17 08:54:16;;;;;;;6.05;5.55;;;;;;;28.84;39.84;96551.56;4948923;29;20218;-61
2023/06/17 08:56:43;;;;;;;6.22;5.63;;;;;;;28.89;39.55;96551.59;4946685;28;20214;-60
2023/06/17 08:59:09;;;;;;;6.75;5.78;;;;;;;29.42;39.44;96543.25;4947253;29;20217;-61
2023/06/17 09:01:36;;;;;;;6.10;5.50;;;;;;;29.28;36.97;96550.25;4958095;29;20221;-60
2023/06/17 09:04:02;;;;;;;5.85;5.32;;;;;;;29.60;36.99;96539.25;4940773;29;20700;-60
2023/06/17 09:06:30;;;;;;;6.50;5.78;;;;;;;29.50;37.11;96537.31;4939275;29;20235;-60
2023/06/17 09:08:58;;;;;;;6.03;5.43;;;;;;;29.37;35.31;96539.69;4946362;29;20211;-60
2023/06/17 09:11:26;;;;;;;5.88;5.38;;;;;;;29.38;36.40;96542.13;4943046;29;20559;-61
2023/06/17 09:13:54;;;;;;;7.03;5.85;;;;;;;29.09;34.93;96549.81;4941406;29;20298;-60
2023/06/17 09:16:25;;;;;;;5.75;5.32;;;;;;;29.28;36.95;96542.09;4938720;29;20221;-60
2023/06/17 09:18:55;;;;;;;6.65;5.82;;;;;;;29.15;34.81;96547.97;4938722;29;20214;-61
2023/06/17 09:21:21;;;;;;;5.40;5.00;;;;;;;29.37;34.41;96540.47;4944803;29;20210;-60
2023/06/17 09:23:58;;;;;;;6.10;5.60;;;;;;;29.54;34.01;96537.59;4948497;29;20211;-61
2023/06/17 09:26:27;;;;;;;5.15;4.75;;;;;;;29.56;32.94;96535.41;4939779;29;20247;-61
2023/06/17 09:28:53;;;;;;;5.22;4.90;;;;;;;29.42;33.70;96532.34;4938727;29;20715;-61
2023/06/17 09:31:20;;;;;;;5.78;5.15;;;;;;;29.51;33.34;96530.75;4938216;29;20219;-60
2023/06/17 09:33:46;;;;;;;6.18;5.43;;;;;;;29.79;33.69;96534.16;4945855;29;20207;-61
2023/06/17 09:36:13;;;;;;;5.47;4.85;;;;;;;29.71;30.21;96534.66;4954382;29;20203;-61
2023/06/17 09:38:40;;;;;;;5.57;5.15;;;;;;;29.77;29.56;96526.22;4956854;29;20207;-61
2023/06/17 09:41:08;;;;;;;5.60;5.07;;;;;;;29.74;29.49;96523.22;4954496;29;20213;-60
2023/06/17 09:43:34;;;;;;;5.35;4.88;;;;;;;29.96;29.66;96521.97;4949041;29;20267;-61
2023/06/17 09:46:04;;;;;;;5.25;4.80;;;;;;;29.94;28.07;96515.13;4941109;29;20227;-59
2023/06/17 09:48:33;;;;;;;5.60;5.20;;;;;;;29.44;28.40;96521.19;4952136;29;20211;-61
2023/06/17 09:51:05;;;;;;;6.13;4.60;;;;;;;29.15;28.99;96528.91;4950872;28;20206;-61
2023/06/17 09:53:32;;;;;;;5.13;4.63;;;;;;;28.82;28.70;96527.31;4965133;28;20350;-61
2023/06/17 09:56:00;;;;;;;5.30;4.65;;;;;;;28.54;30.01;96522.16;4966109;28;20571;-60
2023/06/17 09:58:30;;;;;;;4.97;4.57;;;;;;;28.63;30.86;96518.69;4965410;28;20217;-62
2023/06/17 10:00:57;;;;;;;6.70;4.82;;;;;;;28.78;29.65;96517.19;4965163;28;20583;-61
2023/06/17 10:03:24;;;;;;;4.70;4.30;;;;;;;28.88;28.83;96498.22;4965395;28;20202;-61
2023/06/17 10:05:54;;;;;;;5.13;4.70;;;;;;;29.26;29.38;96511.56;4964767;28;20225;-59
2023/06/17 10:08:21;;;;;;;5.47;4.60;;;;;;;29.22;29.13;96504.97;4965704;28;20293;-60
2023/06/17 10:10:50;;;;;;;5.00;4.60;;;;;;;29.14;28.76;96500.84;4966306;28;20207;-62
2023/06/17 10:13:19;;;;;;;4.90;4.60;;;;;;;29.34;28.32;96494.72;4962912;28;20202;-62
2023/06/17 10:15:47;;;;;;;5.03;4.63;;;;;;;29.34;28.82;96497.44;4947742;28;20592;-61
2023/06/17 10:18:15;;;;;;;4.78;4.38;;;;;;;29.38;27.72;96498.53;4963845;28;20202;-60
2023/06/17 10:20:42;;;;;;;4.10;3.85;;;;;;;29.32;27.64;96491.44;4968488;28;20222;-61
2023/06/17 10:23:09;;;;;;;5.03;4.63;;;;;;;29.41;27.60;96495.28;4963183;28;20210;-61
2023/06/17 10:25:37;;;;;;;4.78;4.47;;;;;;;29.61;27.44;96497.28;4966835;28;20221;-60
2023/06/17 10:28:05;;;;;;;5.20;4.75;;;;;;;29.60;27.51;96496.47;4961415;28;20287;-61
2023/06/17 10:30:34;;;;;;;5.05;4.57;;;;;;;29.04;27.30;96489.06;4963544;28;20209;-61
2023/06/17 10:33:04;;;;;;;5.30;4.80;;;;;;;29.43;27.84;96490.41;4964621;28;20691;-61
2023/06/17 10:35:37;;;;;;;5.25;4.60;;;;;;;29.57;27.63;96491.56;4964296;28;20502;-61
2023/06/17 10:38:03;;;;;;;5.18;4.78;;;;;;;29.96;28.33;96485.69;4964332;28;20289;-61
2023/06/17 10:40:35;;;;;;;5.63;5.13;;;;;;;30.13;28.81;96487.09;4959576;28;20202;-63
2023/06/17 10:43:19;;;;;;;5.88;5.38;;;;;;;30.38;29.79;96480.84;4967420;28;20734;-61
2023/06/17 10:45:52;;;;;;;4.93;4.50;;;;;;;30.55;28.45;96478.69;4963734;28;20230;-62
2023/06/17 10:48:29;;;;;;;4.75;4.45;;;;;;;30.76;28.35;96471.31;4960589;28;20208;-62
2023/06/17 10:50:57;;;;;;;5.38;4.97;;;;;;;30.82;27.95;96485.78;4975501;28;20288;-62
2023/06/17 10:53:27;;;;;;;5.88;5.05;;;;;;;30.55;27.60;96478.69;4977080;28;20189;-62
2023/06/17 10:55:54;;;;;;;5.53;5.03;;;;;;;30.55;27.11;96478.69;4983422;28;20647;-62
2023/06/17 10:58:33;;;;;;;5.30;4.90;;;;;;;30.80;27.71;96479.78;4973644;28;20200;-62
2023/06/17 11:01:04;;;;;;;5.85;4.63;;;;;;;30.81;26.97;96468.59;4956345;29;20226;-62
2023/06/17 11:03:32;;;;;;;4.72;4.35;;;;;;;30.92;26.10;96463.94;4963103;29;20207;-63
2023/06/17 11:06:04;;;;;;;4.90;4.60;;;;;;;31.01;26.24;96456.81;4957672;29;20222;-63
2023/06/17 11:08:31;;;;;;;5.20;4.63;;;;;;;30.72;26.39;96456.56;4956814;29;20290;-61
2023/06/17 11:11:08;;;;;;;4.88;4.47;;;;;;;31.02;27.85;96458.47;4950243;29;20219;-64
2023/06/17 11:13:35;;;;;;;5.13;4.72;;;;;;;31.02;27.41;96467.50;4944438;29;20241;-62
2023/06/17 11:16:02;;;;;;;5.07;4.60;;;;;;;30.51;27.49;96461.22;4949659;29;20241;-63
2023/06/17 11:18:28;;;;;;;4.72;4.43;;;;;;;30.55;27.04;96453.31;4950512;29;20214;-61
2023/06/17 11:20:56;;;;;;;4.57;4.25;;;;;;;30.35;26.10;96450.56;4937121;29;20605;-62
2023/06/17 11:23:23;;;;;;;4.88;4.47;;;;;;;30.13;25.85;96456.28;4937432;29;20242;-61
2023/06/17 11:25:51;;;;;;;4.80;4.47;;;;;;;29.81;28.89;96455.63;4936989;29;20239;-61
2023/06/17 11:28:20;;;;;;;4.63;4.28;;;;;;;29.67;25.55;96446.34;4937458;29;20306;-60
2023/06/17 11:30:47;;;;;;;5.43;4.40;;;;;;;29.97;26.32;96449.16;4942553;29;20211;-61
2023/06/17 11:33:14;;;;;;;4.32;3.92;;;;;;;30.16;25.97;96447.53;4937137;29;20282;-62
2023/06/17 11:35:43;;;;;;;4.40;4.07;;;;;;;30.33;25.68;96445.38;4936659;29;20636;-62